Time;durP1;ratioP1;P1;durP2;ratioP2;P2;SDS_P1;SDS_P2;PMS_P1;PMS_P2;Temp;Humidity;BMP_temperature;BMP_pressure;BME280_temperature;BME280_humidity;BME280_pressure;Samples;Min_cycle;Max_cycle;Signal;HPM_P1;HPM_P2
2024/04/16 00:01:32;;;;;;;56.67;2.60;;;;;;;;;;5349690;26;20539;-69
2024/04/16 00:03:58;;;;;;;56.00;2.40;;;;;;;;;;5349907;26;20978;-68
2024/04/16 00:06:27;;;;;;;56.27;2.47;;;;;;;;;;5346622;26;20471;-68
2024/04/16 00:08:53;;;;;;;56.30;2.40;;;;;;;;;;5349314;26;20516;-68
2024/04/16 00:11:22;;;;;;;56.07;2.50;;;;;;;;;;5349327;26;20476;-68
2024/04/16 00:13:48;;;;;;;57.33;2.40;;;;;;;;;;5349020;26;20827;-68
2024/04/16 00:16:17;;;;;;;57.80;2.40;;;;;;;;;;5348646;26;20847;-68
2024/04/16 00:18:46;;;;;;;56.85;2.72;;;;;;;;;;5349585;26;20558;-68
2024/04/16 00:21:15;;;;;;;57.20;2.70;;;;;;;;;;5349786;26;20285;-68
2024/04/16 00:23:41;;;;;;;56.30;2.50;;;;;;;;;;5349292;26;20455;-68
2024/04/16 00:26:09;;;;;;;57.07;2.70;;;;;;;;;;5348859;26;20519;-68
2024/04/16 00:28:36;;;;;;;56.17;2.40;;;;;;;;;;5349689;26;20523;-68
2024/04/16 00:31:04;;;;;;;56.70;2.40;;;;;;;;;;5349756;26;20456;-68
2024/04/16 00:33:31;;;;;;;56.50;2.70;;;;;;;;;;5349902;26;20483;-68
2024/04/16 00:36:02;;;;;;;55.90;2.40;;;;;;;;;;5350409;26;20527;-68
2024/04/16 00:38:28;;;;;;;56.67;2.73;;;;;;;;;;5350774;26;20754;-68
2024/04/16 00:40:57;;;;;;;56.10;2.70;;;;;;;;;;5349923;26;20839;-68
2024/04/16 00:43:23;;;;;;;60.20;2.80;;;;;;;;;;5350435;26;21054;-68
2024/04/16 00:45:53;;;;;;;57.47;3.07;;;;;;;;;;5350363;26;20538;-68
2024/04/16 00:48:20;;;;;;;56.00;2.53;;;;;;;;;;5351451;26;20471;-69
2024/04/16 00:50:49;;;;;;;56.50;2.80;;;;;;;;;;5349766;26;20479;-68
2024/04/16 00:53:18;;;;;;;56.00;2.47;;;;;;;;;;5349613;26;20599;-68
2024/04/16 00:55:48;;;;;;;56.00;2.80;;;;;;;;;;5349415;26;20448;-68
2024/04/16 00:58:16;;;;;;;56.47;2.53;;;;;;;;;;5349337;26;20619;-68
2024/04/16 01:00:45;;;;;;;57.70;3.03;;;;;;;;;;5349286;26;20868;-68
2024/04/16 01:03:11;;;;;;;56.70;2.90;;;;;;;;;;5350195;26;20459;-68
2024/04/16 01:05:40;;;;;;;55.77;2.87;;;;;;;;;;5348708;26;20559;-68
2024/04/16 01:08:08;;;;;;;56.53;2.53;;;;;;;;;;5349800;26;21017;-68
2024/04/16 01:10:43;;;;;;;56.10;2.67;;;;;;;;;;5349729;26;20524;-68
2024/04/16 01:13:09;;;;;;;55.90;2.20;;;;;;;;;;5351028;26;20467;-68
2024/04/16 01:15:38;;;;;;;57.30;2.87;;;;;;;;;;5350524;26;20289;-70
2024/04/16 01:18:06;;;;;;;57.77;2.20;;;;;;;;;;5350109;26;20527;-68
2024/04/16 01:20:35;;;;;;;56.50;2.50;;;;;;;;;;5351806;26;20578;-68
2024/04/16 01:23:04;;;;;;;55.90;2.83;;;;;;;;;;5351783;26;20505;-68
2024/04/16 01:25:35;;;;;;;59.30;2.87;;;;;;;;;;5351168;26;20463;-68
2024/04/16 01:28:01;;;;;;;56.30;2.60;;;;;;;;;;5351284;26;20532;-68
2024/04/16 01:30:29;;;;;;;59.70;2.80;;;;;;;;;;5350771;26;20587;-69
2024/04/16 01:32:56;;;;;;;57.37;2.77;;;;;;;;;;5351762;26;20471;-68
2024/04/16 01:35:25;;;;;;;56.43;2.80;;;;;;;;;;5350564;26;20523;-69
2024/04/16 01:37:51;;;;;;;56.93;2.80;;;;;;;;;;5350742;26;20487;-68
2024/04/16 01:40:22;;;;;;;57.77;3.03;;;;;;;;;;5349932;26;20479;-68
2024/04/16 01:42:48;;;;;;;56.97;2.60;;;;;;;;;;5350988;26;20542;-68
2024/04/16 01:45:17;;;;;;;56.60;2.70;;;;;;;;;;5350750;26;20523;-68
2024/04/16 01:47:43;;;;;;;58.57;2.67;;;;;;;;;;5350467;26;20570;-68
2024/04/16 01:50:12;;;;;;;56.40;2.77;;;;;;;;;;5351485;26;20541;-68
2024/04/16 01:52:38;;;;;;;56.30;2.63;;;;;;;;;;5351341;26;20535;-69
2024/04/16 01:55:07;;;;;;;57.73;2.90;;;;;;;;;;5350821;26;20475;-69
2024/04/16 01:57:35;;;;;;;56.40;2.80;;;;;;;;;;5350947;26;20555;-69
2024/04/16 02:00:04;;;;;;;59.50;3.33;;;;;;;;;;5351561;26;20838;-68
2024/04/16 02:02:31;;;;;;;58.00;2.60;;;;;;;;;;5351302;26;21101;-68
2024/04/16 02:05:00;;;;;;;58.23;3.30;;;;;;;;;;5351919;26;20570;-68
2024/04/16 02:07:26;;;;;;;57.17;2.80;;;;;;;;;;5351677;26;20585;-69
2024/04/16 02:09:55;;;;;;;56.70;3.00;;;;;;;;;;5352653;26;20463;-69
2024/04/16 02:12:21;;;;;;;56.57;2.73;;;;;;;;;;5351881;26;20547;-69
2024/04/16 02:14:53;;;;;;;57.33;2.70;;;;;;;;;;5351352;26;20543;-69
2024/04/16 02:17:20;;;;;;;56.57;2.90;;;;;;;;;;5351131;26;20871;-69
2024/04/16 02:19:49;;;;;;;59.47;3.50;;;;;;;;;;5351845;26;20463;-68
2024/04/16 02:22:15;;;;;;;56.87;2.70;;;;;;;;;;5352440;26;20467;-68
2024/04/16 02:24:44;;;;;;;56.93;2.33;;;;;;;;;;5350354;26;20519;-69
2024/04/16 02:27:10;;;;;;;57.10;2.83;;;;;;;;;;5350792;26;20496;-68
2024/04/16 02:29:39;;;;;;;56.17;3.30;;;;;;;;;;5350176;26;20464;-69
2024/04/16 02:32:08;;;;;;;56.20;3.13;;;;;;;;;;5350421;26;20468;-68
2024/04/16 02:34:37;;;;;;;57.13;2.70;;;;;;;;;;5350122;26;20520;-68
2024/04/16 02:37:03;;;;;;;60.43;2.70;;;;;;;;;;5350656;26;20994;-68
2024/04/16 02:39:32;;;;;;;56.30;2.73;;;;;;;;;;5350982;26;20880;-68
2024/04/16 02:41:59;;;;;;;56.03;2.90;;;;;;;;;;5350715;26;20507;-69
2024/04/16 02:44:28;;;;;;;56.27;2.73;;;;;;;;;;5350106;26;20506;-68
2024/04/16 02:46:54;;;;;;;61.60;2.90;;;;;;;;;;5350053;26;21154;-68
2024/04/16 02:49:26;;;;;;;56.53;2.63;;;;;;;;;;5349515;26;20897;-69
2024/04/16 02:51:52;;;;;;;56.37;3.20;;;;;;;;;;5350445;26;20948;-68
2024/04/16 02:54:20;;;;;;;56.77;3.10;;;;;;;;;;5350614;26;20460;-68
2024/04/16 02:56:47;;;;;;;57.57;2.70;;;;;;;;;;5349734;26;20616;-68
2024/04/16 02:59:16;;;;;;;58.57;3.10;;;;;;;;;;5350214;26;20467;-68
2024/04/16 03:01:42;;;;;;;56.78;2.60;;;;;;;;;;5351209;26;20575;-68
2024/04/16 03:04:10;;;;;;;57.57;3.20;;;;;;;;;;5354008;26;20237;-66
2024/04/16 03:06:39;;;;;;;58.93;3.10;;;;;;;;;;5355526;26;20514;-67
2024/04/16 03:09:08;;;;;;;57.37;3.03;;;;;;;;;;5356159;26;20582;-67
2024/04/16 03:11:34;;;;;;;57.80;2.90;;;;;;;;;;5355628;26;20755;-67
2024/04/16 03:14:03;;;;;;;59.17;3.63;;;;;;;;;;5355493;26;20282;-67
2024/04/16 03:16:29;;;;;;;56.72;3.00;;;;;;;;;;5352277;26;20520;-67
2024/04/16 03:18:58;;;;;;;57.63;2.90;;;;;;;;;;5352530;26;20229;-67
2024/04/16 03:21:25;;;;;;;59.50;3.00;;;;;;;;;;5354498;26;20991;-67
2024/04/16 03:23:56;;;;;;;56.90;3.30;;;;;;;;;;5355286;26;20603;-67
2024/04/16 03:26:22;;;;;;;58.63;3.60;;;;;;;;;;5354986;26;21074;-67
2024/04/16 03:28:51;;;;;;;57.07;3.30;;;;;;;;;;5354894;26;20516;-67
2024/04/16 03:31:17;;;;;;;59.70;3.45;;;;;;;;;;5353956;26;20463;-67
2024/04/16 03:33:46;;;;;;;56.67;3.35;;;;;;;;;;5354122;26;20233;-67
2024/04/16 03:36:12;;;;;;;58.90;3.90;;;;;;;;;;5352965;26;20669;-67
2024/04/16 03:38:40;;;;;;;57.17;2.90;;;;;;;;;;5353763;26;20831;-67
2024/04/16 03:41:12;;;;;;;57.03;3.00;;;;;;;;;;5352550;26;20452;-67
2024/04/16 03:43:41;;;;;;;57.08;3.70;;;;;;;;;;5354119;26;20241;-67
2024/04/16 03:46:07;;;;;;;57.80;3.92;;;;;;;;;;5352268;26;20271;-67
2024/04/16 03:48:35;;;;;;;57.70;3.50;;;;;;;;;;5352980;26;20236;-68
2024/04/16 03:51:01;;;;;;;56.50;3.17;;;;;;;;;;5352861;26;20299;-67
2024/04/16 03:53:30;;;;;;;56.60;3.20;;;;;;;;;;5351923;26;20508;-68
2024/04/16 03:55:59;;;;;;;62.30;4.07;;;;;;;;;;5351318;26;20448;-67
2024/04/16 03:58:33;;;;;;;57.00;3.57;;;;;;;;;;5351821;26;20463;-68
2024/04/16 04:01:07;;;;;;;56.30;3.33;;;;;;;;;;5350589;26;20487;-68
2024/04/16 04:03:38;;;;;;;58.30;3.73;;;;;;;;;;5352028;26;20475;-68
2024/04/16 04:06:04;;;;;;;56.87;2.87;;;;;;;;;;5352270;26;20467;-68
2024/04/16 04:08:33;;;;;;;58.83;3.10;;;;;;;;;;5352525;26;20464;-67
2024/04/16 04:11:00;;;;;;;57.92;3.60;;;;;;;;;;5351886;26;20510;-67
2024/04/16 04:13:32;;;;;;;57.10;3.33;;;;;;;;;;5351530;26;20229;-67
2024/04/16 04:15:58;;;;;;;57.93;2.90;;;;;;;;;;5349803;26;20464;-68
2024/04/16 04:18:26;;;;;;;60.43;3.30;;;;;;;;;;5350794;26;20895;-68
2024/04/16 04:20:53;;;;;;;58.00;3.90;;;;;;;;;;5349441;26;20508;-67
2024/04/16 04:23:21;;;;;;;56.40;2.90;;;;;;;;;;5348844;26;20475;-68
2024/04/16 04:25:47;;;;;;;58.83;2.97;;;;;;;;;;5349321;26;20479;-68
2024/04/16 04:28:16;;;;;;;57.93;2.70;;;;;;;;;;5348484;26;20487;-68
2024/04/16 04:30:45;;;;;;;57.57;3.30;;;;;;;;;;5349320;26;20507;-68
2024/04/16 04:33:14;;;;;;;59.27;2.77;;;;;;;;;;5349376;26;21015;-68
2024/04/16 04:35:40;;;;;;;57.80;3.20;;;;;;;;;;5349172;26;20476;-68
2024/04/16 04:38:08;;;;;;;57.47;3.20;;;;;;;;;;5349286;26;20479;-68
2024/04/16 04:40:35;;;;;;;60.83;3.90;;;;;;;;;;5348699;26;20484;-68
2024/04/16 04:43:04;;;;;;;56.33;2.80;;;;;;;;;;5348453;26;20524;-68
2024/04/16 04:45:30;;;;;;;59.53;3.53;;;;;;;;;;5348768;26;20738;-67
2024/04/16 04:48:02;;;;;;;58.30;3.23;;;;;;;;;;5349133;26;20492;-68
2024/04/16 04:50:31;;;;;;;56.60;3.00;;;;;;;;;;5349558;26;20512;-69
2024/04/16 04:52:57;;;;;;;60.90;3.28;;;;;;;;;;5352235;26;20240;-68
2024/04/16 04:55:25;;;;;;;58.40;3.10;;;;;;;;;;5353101;26;20280;-68
2024/04/16 04:57:54;;;;;;;59.30;3.33;;;;;;;;;;5352732;26;20475;-68
2024/04/16 05:00:23;;;;;;;56.80;3.23;;;;;;;;;;5353351;26;20471;-67
2024/04/16 05:02:49;;;;;;;58.50;3.07;;;;;;;;;;5353691;26;20990;-68
2024/04/16 05:05:20;;;;;;;57.93;3.17;;;;;;;;;;5353315;26;20836;-68
2024/04/16 05:07:46;;;;;;;61.83;3.43;;;;;;;;;;5353527;26;20527;-68
2024/04/16 05:10:15;;;;;;;57.90;3.60;;;;;;;;;;5353711;26;20475;-68
2024/04/16 05:12:41;;;;;;;57.87;3.20;;;;;;;;;;5352904;26;20515;-68
2024/04/16 05:15:11;;;;;;;58.03;3.07;;;;;;;;;;5353388;26;20519;-69
2024/04/16 05:17:37;;;;;;;56.53;3.20;;;;;;;;;;5352250;26;20586;-68
2024/04/16 05:20:07;;;;;;;57.27;3.37;;;;;;;;;;5351773;26;20848;-68
2024/04/16 05:22:35;;;;;;;59.87;3.80;;;;;;;;;;5351617;26;20463;-68
2024/04/16 05:25:04;;;;;;;57.37;3.80;;;;;;;;;;5351279;26;20822;-68
2024/04/16 05:27:30;;;;;;;59.00;3.23;;;;;;;;;;5351566;26;20479;-68
2024/04/16 05:29:59;;;;;;;57.00;3.30;;;;;;;;;;5353043;26;20467;-68
2024/04/16 05:32:25;;;;;;;58.90;3.73;;;;;;;;;;5352738;26;20587;-68
2024/04/16 05:34:54;;;;;;;57.30;3.70;;;;;;;;;;5352359;26;20507;-68
2024/04/16 05:37:20;;;;;;;57.60;3.40;;;;;;;;;;5351661;26;20479;-68
2024/04/16 05:39:52;;;;;;;57.60;3.30;;;;;;;;;;5352035;26;20527;-68
2024/04/16 05:42:18;;;;;;;58.53;3.10;;;;;;;;;;5352449;26;20575;-68
2024/04/16 05:44:46;;;;;;;58.30;3.00;;;;;;;;;;5351893;26;20524;-69
2024/04/16 05:47:13;;;;;;;60.30;3.20;;;;;;;;;;5351641;26;20612;-68
2024/04/16 05:49:41;;;;;;;57.07;2.90;;;;;;;;;;5352661;26;20714;-69
2024/04/16 05:52:07;;;;;;;57.77;2.90;;;;;;;;;;5352394;26;20549;-68
2024/04/16 05:54:36;;;;;;;57.17;2.90;;;;;;;;;;5351919;26;20959;-69
2024/04/16 05:57:05;;;;;;;57.07;3.60;;;;;;;;;;5351468;26;20479;-69
2024/04/16 05:59:34;;;;;;;56.70;3.47;;;;;;;;;;5351855;26;20990;-68
2024/04/16 06:02:00;;;;;;;58.73;3.30;;;;;;;;;;5351797;26;20569;-68
2024/04/16 06:04:29;;;;;;;57.90;3.37;;;;;;;;;;5351456;26;20515;-69
2024/04/16 06:06:55;;;;;;;57.10;3.60;;;;;;;;;;5351144;26;21129;-68
2024/04/16 06:09:24;;;;;;;56.87;3.37;;;;;;;;;;5351705;26;20551;-69
2024/04/16 06:11:50;;;;;;;56.67;3.30;;;;;;;;;;5352070;26;20546;-69
2024/04/16 06:14:21;;;;;;;62.30;3.70;;;;;;;;;;5352417;26;20479;-69
2024/04/16 06:16:47;;;;;;;60.20;3.30;;;;;;;;;;5351019;26;20491;-69
2024/04/16 06:19:16;;;;;;;56.83;3.30;;;;;;;;;;5351683;26;20463;-68
2024/04/16 06:21:44;;;;;;;60.50;3.60;;;;;;;;;;5351882;26;20463;-68
2024/04/16 06:24:13;;;;;;;58.60;2.70;;;;;;;;;;5350687;26;20467;-69
2024/04/16 06:26:39;;;;;;;58.20;3.07;;;;;;;;;;5350953;26;20516;-69
2024/04/16 06:29:08;;;;;;;58.57;3.50;;;;;;;;;;5351100;26;20855;-69
2024/04/16 06:31:37;;;;;;;59.27;3.03;;;;;;;;;;5350889;26;20464;-69
2024/04/16 06:34:05;;;;;;;55.97;2.73;;;;;;;;;;5351173;26;20518;-69
2024/04/16 06:36:32;;;;;;;60.30;3.30;;;;;;;;;;5351326;26;20472;-69
2024/04/16 06:39:00;;;;;;;57.00;3.07;;;;;;;;;;5350384;26;20463;-69
2024/04/16 06:41:26;;;;;;;57.10;2.80;;;;;;;;;;5351275;26;20578;-69
2024/04/16 06:43:55;;;;;;;57.10;3.00;;;;;;;;;;5346519;26;20555;-70
2024/04/16 06:46:21;;;;;;;62.60;3.50;;;;;;;;;;5343420;26;20376;-71
2024/04/16 06:48:55;;;;;;;57.27;3.30;;;;;;;;;;5349149;26;20491;-70
2024/04/16 06:51:21;;;;;;;59.17;3.33;;;;;;;;;;5347557;26;20543;-69
2024/04/16 06:53:50;;;;;;;59.07;3.40;;;;;;;;;;5349067;26;20487;-70
2024/04/16 06:56:16;;;;;;;64.50;3.10;;;;;;;;;;5347902;26;20483;-70
2024/04/16 06:58:45;;;;;;;58.60;3.20;;;;;;;;;;5348117;26;20540;-70
2024/04/16 07:01:13;;;;;;;56.13;2.90;;;;;;;;;;5351716;26;20475;-69
2024/04/16 07:03:40;;;;;;;57.83;2.90;;;;;;;;;;5352376;26;20488;-70
2024/04/16 07:06:11;;;;;;;58.07;3.00;;;;;;;;;;5349089;26;20479;-70
2024/04/16 07:08:37;;;;;;;61.20;2.80;;;;;;;;;;5351386;26;20464;-70
2024/04/16 07:11:06;;;;;;;59.80;3.23;;;;;;;;;;5350654;26;20857;-70
2024/04/16 07:13:33;;;;;;;61.37;3.27;;;;;;;;;;5348668;26;20514;-70
2024/04/16 07:16:02;;;;;;;61.40;3.80;;;;;;;;;;5347248;26;20535;-70
2024/04/16 07:18:28;;;;;;;59.17;3.03;;;;;;;;;;5349064;26;20528;-70
2024/04/16 07:20:57;;;;;;;58.37;3.90;;;;;;;;;;5349634;26;20480;-70
2024/04/16 07:23:26;;;;;;;58.57;3.50;;;;;;;;;;5349256;26;20524;-70
2024/04/16 07:25:54;;;;;;;58.70;3.33;;;;;;;;;;5348454;26;20535;-71
2024/04/16 07:28:20;;;;;;;59.20;3.10;;;;;;;;;;5349845;26;20499;-70
2024/04/16 07:30:49;;;;;;;59.90;3.17;;;;;;;;;;5350343;26;20487;-70
2024/04/16 07:33:15;;;;;;;60.50;3.00;;;;;;;;;;5349489;26;20532;-70
2024/04/16 07:35:48;;;;;;;63.50;3.13;;;;;;;;;;5350546;26;20471;-70
2024/04/16 07:38:16;;;;;;;56.57;2.63;;;;;;;;;;5351563;26;20484;-70
2024/04/16 07:40:53;;;;;;;57.30;3.10;;;;;;;;;;5352291;26;20894;-70
2024/04/16 07:43:19;;;;;;;58.20;2.70;;;;;;;;;;5351246;26;20528;-70
2024/04/16 07:45:48;;;;;;;57.90;2.47;;;;;;;;;;5348629;26;20472;-71
2024/04/16 07:48:14;;;;;;;57.13;2.50;;;;;;;;;;5350676;26;20479;-70
2024/04/16 07:50:43;;;;;;;59.47;2.60;;;;;;;;;;5352425;26;20476;-70
2024/04/16 07:53:25;;;;;;;57.90;2.70;;;;;;;;;;5352796;26;20480;-70
2024/04/16 07:55:57;;;;;;;59.50;3.60;;;;;;;;;;5351722;26;20479;-70
2024/04/16 07:58:23;;;;;;;57.90;2.97;;;;;;;;;;5352749;26;20594;-70
2024/04/16 08:00:54;;;;;;;59.90;2.77;;;;;;;;;;5351682;26;20535;-69
2024/04/16 08:03:20;;;;;;;56.47;2.50;;;;;;;;;;5350951;26;20571;-69
2024/04/16 08:05:49;;;;;;;58.50;3.13;;;;;;;;;;5350395;26;20557;-71
2024/04/16 08:08:15;;;;;;;56.10;2.30;;;;;;;;;;5351385;26;20518;-70
2024/04/16 08:10:44;;;;;;;56.97;2.83;;;;;;;;;;5352423;26;20518;-70
2024/04/16 08:13:13;;;;;;;57.33;2.30;;;;;;;;;;5353262;26;20483;-70
2024/04/16 08:15:42;;;;;;;60.20;3.07;;;;;;;;;;5352941;26;20961;-70
2024/04/16 08:18:08;;;;;;;59.23;2.50;;;;;;;;;;5351910;26;20546;-70
2024/04/16 08:20:36;;;;;;;57.93;2.60;;;;;;;;;;5353449;26;20471;-70
2024/04/16 08:23:03;;;;;;;58.40;2.90;;;;;;;;;;5353885;26;20524;-69
2024/04/16 08:25:31;;;;;;;56.00;2.40;;;;;;;;;;5354436;26;20523;-70
2024/04/16 08:27:57;;;;;;;56.43;2.10;;;;;;;;;;5353160;26;20575;-69
2024/04/16 08:30:29;;;;;;;58.47;2.93;;;;;;;;;;5353949;26;21111;-69
2024/04/16 08:32:55;;;;;;;56.40;2.20;;;;;;;;;;5357463;26;20491;-70
2024/04/16 08:35:27;;;;;;;56.97;2.93;;;;;;;;;;5357495;26;20872;-69
2024/04/16 08:37:54;;;;;;;61.90;2.87;;;;;;;;;;5357005;26;20856;-70
2024/04/16 08:40:22;;;;;;;60.63;2.97;;;;;;;;;;5353937;26;20483;-71
2024/04/16 08:42:49;;;;;;;57.20;2.50;;;;;;;;;;5353931;26;20565;-70
2024/04/16 08:45:20;;;;;;;59.57;2.33;;;;;;;;;;5353536;26;20536;-70
2024/04/16 08:47:51;;;;;;;55.90;2.50;;;;;;;;;;5354351;26;20459;-70
2024/04/16 08:50:20;;;;;;;57.37;2.83;;;;;;;;;;5354368;26;20467;-70
2024/04/16 08:52:47;;;;;;;57.60;2.40;;;;;;;;;;5352255;26;20503;-70
2024/04/16 08:55:16;;;;;;;55.97;2.37;;;;;;;;;;5351679;26;20545;-70
2024/04/16 08:57:42;;;;;;;57.93;2.90;;;;;;;;;;5352399;26;20571;-70
2024/04/16 09:00:11;;;;;;;55.87;3.00;;;;;;;;;;5353903;26;20523;-70
2024/04/16 09:02:38;;;;;;;56.60;2.50;;;;;;;;;;5356063;26;20479;-70
2024/04/16 09:05:09;;;;;;;57.50;2.77;;;;;;;;;;5354746;26;20606;-71
2024/04/16 09:07:36;;;;;;;59.57;2.87;;;;;;;;;;5352699;26;20539;-69
2024/04/16 09:10:14;;;;;;;58.43;2.67;;;;;;;;;;5351376;26;20483;-69
2024/04/16 09:12:41;;;;;;;59.00;2.43;;;;;;;;;;5338582;26;20483;-69
2024/04/16 09:15:10;;;;;;;56.60;2.40;;;;;;;;;;5351637;26;20557;-69
2024/04/16 09:17:44;;;;;;;57.10;2.60;;;;;;;;;;5353203;26;20586;-70
2024/04/16 09:20:19;;;;;;;56.03;2.17;;;;;;;;;;5354526;26;20475;-69
2024/04/16 09:22:46;;;;;;;57.87;2.63;;;;;;;;;;5353192;26;20523;-69
2024/04/16 09:25:15;;;;;;;57.60;2.67;;;;;;;;;;5348440;26;20475;-69
2024/04/16 09:27:41;;;;;;;56.30;2.50;;;;;;;;;;5348112;26;20487;-69
2024/04/16 09:30:11;;;;;;;56.50;3.10;;;;;;;;;;5351037;26;20840;-68
2024/04/16 09:32:37;;;;;;;56.07;2.33;;;;;;;;;;5351426;26;20525;-69
2024/04/16 09:35:06;;;;;;;57.40;2.50;;;;;;;;;;5351987;26;20479;-69
2024/04/16 09:37:35;;;;;;;56.30;2.40;;;;;;;;;;5350251;26;20475;-69
2024/04/16 09:40:04;;;;;;;57.77;2.57;;;;;;;;;;5352564;26;20812;-70
2024/04/16 09:42:30;;;;;;;57.50;2.40;;;;;;;;;;5353195;26;20603;-69
2024/04/16 09:45:00;;;;;;;58.53;2.60;;;;;;;;;;5352565;26;20487;-69
2024/04/16 09:47:27;;;;;;;59.17;2.70;;;;;;;;;;5352879;26;20575;-69
2024/04/16 09:49:56;;;;;;;57.27;2.10;;;;;;;;;;5353611;26;20483;-69
2024/04/16 09:52:23;;;;;;;56.93;2.83;;;;;;;;;;5354146;26;20475;-69
2024/04/16 09:54:55;;;;;;;57.37;2.50;;;;;;;;;;5351979;26;20535;-69
2024/04/16 09:57:23;;;;;;;61.53;2.60;;;;;;;;;;5352052;26;20527;-69
2024/04/16 09:59:54;;;;;;;56.20;2.70;;;;;;;;;;5354804;26;21125;-70
2024/04/16 10:02:21;;;;;;;55.77;2.30;;;;;;;;;;5352633;26;20491;-69
2024/04/16 10:04:50;;;;;;;58.57;2.87;;;;;;;;;;5349413;26;20483;-69
2024/04/16 10:07:17;;;;;;;57.07;2.53;;;;;;;;;;5349649;26;20499;-68
2024/04/16 10:09:46;;;;;;;56.17;2.40;;;;;;;;;;5354974;26;20483;-69
2024/04/16 10:12:16;;;;;;;60.27;2.60;;;;;;;;;;5355414;26;20494;-69
2024/04/16 10:14:45;;;;;;;57.40;2.63;;;;;;;;;;5354755;26;20464;-69
2024/04/16 10:17:13;;;;;;;57.60;2.50;;;;;;;;;;5351888;26;20531;-69
2024/04/16 10:19:42;;;;;;;57.50;2.33;;;;;;;;;;5352994;26;20483;-71
2024/04/16 10:22:12;;;;;;;55.90;2.30;;;;;;;;;;5352083;26;20491;-71
2024/04/16 10:24:41;;;;;;;60.23;2.60;;;;;;;;;;5351632;26;20589;-71
2024/04/16 10:27:09;;;;;;;55.50;2.17;;;;;;;;;;5350264;26;20575;-70
2024/04/16 10:29:42;;;;;;;56.97;2.47;;;;;;;;;;5352290;26;20900;-70
2024/04/16 10:32:10;;;;;;;58.47;2.23;;;;;;;;;;5352101;26;20479;-71
2024/04/16 10:34:43;;;;;;;57.10;2.67;;;;;;;;;;5351914;26;20483;-70
2024/04/16 10:37:09;;;;;;;56.77;2.27;;;;;;;;;;5351637;26;20467;-69
2024/04/16 10:39:38;;;;;;;56.60;2.53;;;;;;;;;;5351324;26;20483;-71
2024/04/16 10:42:04;;;;;;;56.97;2.50;;;;;;;;;;5350771;26;20947;-71
2024/04/16 10:44:36;;;;;;;57.60;2.63;;;;;;;;;;5350651;26;20488;-71
2024/04/16 10:47:06;;;;;;;56.00;2.57;;;;;;;;;;5348261;26;20487;-71
2024/04/16 10:49:34;;;;;;;56.57;2.50;;;;;;;;;;5350978;26;20535;-70
2024/04/16 10:52:08;;;;;;;57.50;2.57;;;;;;;;;;5353562;26;20594;-70
2024/04/16 10:54:37;;;;;;;56.40;2.43;;;;;;;;;;5351883;26;20491;-70
2024/04/16 10:57:04;;;;;;;56.73;2.57;;;;;;;;;;5351599;26;20599;-70
2024/04/16 10:59:33;;;;;;;56.30;2.40;;;;;;;;;;5353118;26;20479;-70
2024/04/16 11:01:59;;;;;;;56.00;2.40;;;;;;;;;;5352925;26;20619;-70
2024/04/16 11:04:31;;;;;;;55.70;2.30;;;;;;;;;;5350467;26;21066;-69
2024/04/16 11:06:58;;;;;;;57.67;2.60;;;;;;;;;;5350213;26;20472;-70
2024/04/16 11:09:27;;;;;;;55.60;2.30;;;;;;;;;;5353525;26;20480;-70
2024/04/16 11:11:53;;;;;;;57.10;2.80;;;;;;;;;;5351725;26;20480;-70
2024/04/16 11:14:23;;;;;;;56.83;2.50;;;;;;;;;;5351594;26;20562;-70
2024/04/16 11:16:49;;;;;;;56.70;2.10;;;;;;;;;;5350921;26;20540;-70
2024/04/16 11:19:18;;;;;;;56.20;2.33;;;;;;;;;;5349665;26;20558;-70
2024/04/16 11:21:47;;;;;;;56.70;2.47;;;;;;;;;;5348254;26;20576;-71
2024/04/16 11:24:18;;;;;;;56.87;2.70;;;;;;;;;;5347135;26;20563;-71
2024/04/16 11:26:44;;;;;;;59.40;2.50;;;;;;;;;;5347842;26;20491;-71
2024/04/16 11:29:13;;;;;;;55.73;2.23;;;;;;;;;;5347339;26;20616;-71
2024/04/16 11:31:39;;;;;;;57.20;2.30;;;;;;;;;;5346857;26;20456;-71
2024/04/16 11:34:09;;;;;;;55.90;2.07;;;;;;;;;;5348772;26;20472;-70
2024/04/16 11:36:35;;;;;;;56.10;2.30;;;;;;;;;;5347509;26;20589;-70
2024/04/16 11:39:08;;;;;;;56.17;2.20;;;;;;;;;;5349927;26;20929;-70
2024/04/16 11:41:34;;;;;;;55.00;2.17;;;;;;;;;;5348327;26;20590;-71
2024/04/16 11:44:05;;;;;;;55.77;2.50;;;;;;;;;;5349258;26;20531;-70
2024/04/16 11:46:32;;;;;;;56.80;2.50;;;;;;;;;;5348522;26;20483;-70
2024/04/16 11:49:00;;;;;;;58.00;2.57;;;;;;;;;;5350710;26;20487;-69
2024/04/16 11:51:27;;;;;;;56.30;2.40;;;;;;;;;;5350830;26;20543;-71
2024/04/16 11:53:56;;;;;;;55.70;2.30;;;;;;;;;;5349077;26;20543;-70
2024/04/16 11:56:25;;;;;;;60.40;2.70;;;;;;;;;;5338865;26;20880;-70
2024/04/16 11:58:53;;;;;;;56.83;2.40;;;;;;;;;;5349942;26;20291;-71
2024/04/16 12:01:19;;;;;;;57.83;2.60;;;;;;;;;;5348849;26;20575;-70
2024/04/16 12:03:49;;;;;;;55.70;2.00;;;;;;;;;;5350901;26;20547;-71
2024/04/16 12:06:15;;;;;;;55.87;2.30;;;;;;;;;;5349523;26;20472;-70
2024/04/16 12:08:43;;;;;;;56.97;2.17;;;;;;;;;;5350513;26;20502;-70
2024/04/16 12:11:11;;;;;;;58.23;2.50;;;;;;;;;;5350562;26;20956;-70
2024/04/16 12:13:42;;;;;;;56.00;2.10;;;;;;;;;;5351246;26;20475;-70
2024/04/16 12:16:08;;;;;;;56.13;2.40;;;;;;;;;;5347986;26;20484;-71
2024/04/16 12:18:37;;;;;;;56.37;2.17;;;;;;;;;;5336041;26;20823;-70
2024/04/16 12:21:03;;;;;;;57.23;2.17;;;;;;;;;;5347729;26;20540;-70
2024/04/16 12:23:33;;;;;;;56.30;2.20;;;;;;;;;;5350689;26;20479;-71
2024/04/16 12:25:59;;;;;;;56.40;2.10;;;;;;;;;;5336070;26;20526;-70
2024/04/16 12:28:28;;;;;;;56.60;2.00;;;;;;;;;;5352492;26;20599;-70
2024/04/16 12:30:57;;;;;;;56.00;2.20;;;;;;;;;;5351814;26;20811;-70
2024/04/16 12:33:26;;;;;;;59.57;2.37;;;;;;;;;;5349710;26;20658;-70
2024/04/16 12:35:52;;;;;;;55.47;2.50;;;;;;;;;;5352090;26;20526;-69
2024/04/16 12:38:21;;;;;;;56.17;2.10;;;;;;;;;;5347758;26;20543;-71
2024/04/16 12:40:47;;;;;;;55.33;1.97;;;;;;;;;;5352397;26;20532;-70
2024/04/16 12:43:16;;;;;;;56.50;2.67;;;;;;;;;;5351524;26;20479;-71
2024/04/16 12:45:43;;;;;;;55.60;2.53;;;;;;;;;;5352257;26;20530;-70
2024/04/16 12:48:20;;;;;;;56.60;2.33;;;;;;;;;;5353483;26;20491;-69
2024/04/16 12:50:47;;;;;;;56.60;2.17;;;;;;;;;;5347564;26;20835;-70
2024/04/16 12:53:15;;;;;;;58.60;2.27;;;;;;;;;;5351957;26;20475;-70
2024/04/16 12:55:41;;;;;;;56.30;2.27;;;;;;;;;;5339562;26;21003;-70
2024/04/16 12:58:10;;;;;;;55.67;2.17;;;;;;;;;;5349518;26;20475;-71
2024/04/16 13:00:37;;;;;;;56.93;2.23;;;;;;;;;;5351354;26;20479;-71
2024/04/16 13:03:06;;;;;;;56.00;2.30;;;;;;;;;;5352297;26;21022;-68
2024/04/16 13:05:35;;;;;;;55.50;2.20;;;;;;;;;;5349459;26;20515;-68
2024/04/16 13:08:04;;;;;;;56.50;2.47;;;;;;;;;;5352789;26;20526;-68
2024/04/16 13:10:31;;;;;;;55.80;2.00;;;;;;;;;;5347521;26;20476;-70
2024/04/16 13:13:00;;;;;;;55.17;1.90;;;;;;;;;;5350277;26;21066;-70
2024/04/16 13:15:26;;;;;;;55.47;1.97;;;;;;;;;;5350860;26;20472;-70
2024/04/16 13:17:55;;;;;;;54.93;1.90;;;;;;;;;;5348465;26;20492;-71
2024/04/16 13:20:23;;;;;;;55.70;2.10;;;;;;;;;;5351005;26;20479;-71
2024/04/16 13:22:54;;;;;;;55.80;2.17;;;;;;;;;;5351157;26;20547;-70
2024/04/16 13:25:20;;;;;;;56.27;2.87;;;;;;;;;;5350267;26;20479;-69
2024/04/16 13:27:49;;;;;;;63.33;2.80;;;;;;;;;;5350176;26;20487;-71
2024/04/16 13:30:15;;;;;;;56.57;2.63;;;;;;;;;;5350808;26;20475;-71
2024/04/16 13:32:44;;;;;;;56.00;2.10;;;;;;;;;;5351571;26;20536;-70
2024/04/16 13:35:10;;;;;;;56.00;2.23;;;;;;;;;;5351373;26;20471;-70
2024/04/16 13:37:39;;;;;;;57.30;2.33;;;;;;;;;;5348971;26;20531;-70
2024/04/16 13:40:08;;;;;;;56.40;2.30;;;;;;;;;;5352450;26;21177;-69
2024/04/16 13:42:37;;;;;;;56.67;2.30;;;;;;;;;;5351278;26;20479;-70
2024/04/16 13:45:04;;;;;;;57.43;2.40;;;;;;;;;;5351744;26;20491;-70
2024/04/16 13:47:32;;;;;;;55.87;2.10;;;;;;;;;;5351375;26;20905;-70
2024/04/16 13:49:59;;;;;;;56.00;2.20;;;;;;;;;;5350822;26;20575;-71
2024/04/16 13:52:27;;;;;;;55.73;2.10;;;;;;;;;;5350990;26;20551;-69
2024/04/16 13:54:53;;;;;;;56.00;2.30;;;;;;;;;;5336265;26;20483;-70
2024/04/16 13:57:25;;;;;;;57.57;2.33;;;;;;;;;;5348774;26;20491;-70
2024/04/16 13:59:52;;;;;;;55.87;2.10;;;;;;;;;;5349389;26;20504;-69
2024/04/16 14:02:20;;;;;;;56.60;2.17;;;;;;;;;;5350426;26;20479;-71
2024/04/16 14:04:47;;;;;;;57.20;2.20;;;;;;;;;;5351964;26;20595;-70
2024/04/16 14:07:15;;;;;;;56.10;2.20;;;;;;;;;;5349570;26;20487;-68
2024/04/16 14:09:41;;;;;;;59.43;2.13;;;;;;;;;;5350459;26;20851;-69
2024/04/16 14:12:10;;;;;;;56.47;2.30;;;;;;;;;;5351166;26;20528;-69
2024/04/16 14:14:39;;;;;;;58.20;2.30;;;;;;;;;;5352738;26;20468;-70
2024/04/16 14:17:08;;;;;;;56.20;2.40;;;;;;;;;;5351381;26;20987;-70
2024/04/16 14:19:34;;;;;;;56.10;2.20;;;;;;;;;;5352069;26;20808;-70
2024/04/16 14:22:03;;;;;;;57.17;1.90;;;;;;;;;;5351945;26;20895;-69
2024/04/16 14:24:33;;;;;;;56.03;2.27;;;;;;;;;;5351729;26;20480;-70
2024/04/16 14:27:02;;;;;;;57.27;2.20;;;;;;;;;;5351996;26;20543;-70
2024/04/16 14:29:30;;;;;;;59.27;2.03;;;;;;;;;;5351859;26;20527;-70
2024/04/16 14:32:01;;;;;;;56.10;1.90;;;;;;;;;;5338037;26;20472;-70
2024/04/16 14:34:28;;;;;;;56.53;2.20;;;;;;;;;;5350611;26;20487;-70
2024/04/16 14:36:58;;;;;;;55.80;1.93;;;;;;;;;;5351027;26;20582;-70